Time;durP1;ratioP1;P1;durP2;ratioP2;P2;SDS_P1;SDS_P2;PMS_P1;PMS_P2;Temp;Humidity;BMP_temperature;BMP_pressure;BME280_temperature;BME280_humidity;BME280_pressure;Samples;Min_cycle;Max_cycle;Signal;HPM_P1;HPM_P2
2021/09/03 00:03:33;;;;;;;19.88;5.15;;;14.70;99.90;;;;;;20763400;28;20029;-80
2021/09/03 00:13:33;;;;;;;6.78;4.30;;;14.60;99.90;;;;;;20800048;28;20083;-79
2021/09/03 00:23:34;;;;;;;9.23;5.10;;;14.40;99.90;;;;;;20789376;28;20120;-79
2021/09/03 00:33:35;;;;;;;9.40;5.10;;;14.30;99.90;;;;;;20771757;28;20481;-78
2021/09/03 00:43:37;;;;;;;11.40;4.90;;;14.30;99.90;;;;;;20766886;28;20045;-79
2021/09/03 00:53:37;;;;;;;;;;;14.30;99.90;;;;;;20765975;28;20046;-78
2021/09/03 01:03:38;;;;;;;8.30;5.07;;;14.10;99.90;;;;;;20759855;28;20295;-77
2021/09/03 01:13:39;;;;;;;7.37;4.67;;;14.10;99.90;;;;;;20802562;28;20025;-78
2021/09/03 01:23:40;;;;;;;6.30;4.57;;;14.00;99.90;;;;;;20786905;28;20037;-77
2021/09/03 01:33:41;;;;;;;11.53;5.80;;;13.90;99.90;;;;;;20764686;28;20026;-79
2021/09/03 01:43:41;;;;;;;6.47;4.47;;;13.80;99.90;;;;;;20774154;28;20044;-79
2021/09/03 01:53:42;;;;;;;7.13;4.80;;;13.60;99.90;;;;;;20777838;28;20037;-79
2021/09/03 02:03:43;;;;;;;7.13;4.53;;;13.30;99.90;;;;;;20772885;28;20049;-78
2021/09/03 02:13:44;;;;;;;8.67;5.00;;;13.00;99.90;;;;;;20815128;28;20400;-78
2021/09/03 02:23:45;;;;;;;8.07;5.37;;;13.00;99.90;;;;;;20924783;22;20131;-77
2021/09/03 02:33:46;;;;;;;16.27;5.33;;;13.10;99.90;;;;;;20837849;28;20040;-77
2021/09/03 02:43:47;;;;;;;9.43;4.90;;;13.00;99.90;;;;;;20840928;28;20025;-77
2021/09/03 02:53:48;;;;;;;10.23;5.20;;;13.00;99.90;;;;;;20839089;28;20036;-77
2021/09/03 03:03:48;;;;;;;7.33;4.53;;;12.90;99.90;;;;;;20837721;28;20083;-77
2021/09/03 03:13:58;;;;;;;8.47;4.77;;;12.50;99.90;;;;;;20836085;28;20025;-77
2021/09/03 03:24:00;;;;;;;10.57;5.82;;;12.70;99.90;;;;;;20833599;28;20037;-77
2021/09/03 03:34:01;;;;;;;13.03;5.87;;;12.70;99.90;;;;;;20812384;28;20040;-76
2021/09/03 03:44:02;;;;;;;7.28;4.78;;;12.10;99.90;;;;;;20813656;28;20040;-77
2021/09/03 03:54:03;;;;;;;9.87;5.80;;;12.00;99.90;;;;;;20827037;28;20108;-77
2021/09/03 04:04:04;;;;;;;54.47;5.87;;;12.00;99.90;;;;;;20831293;28;20029;-75
2021/09/03 04:14:04;;;;;;;7.37;4.93;;;12.00;99.90;;;;;;20813746;28;20087;-77
2021/09/03 04:24:05;;;;;;;7.40;4.70;;;11.70;99.90;;;;;;20768654;28;20053;-77
2021/09/03 04:34:06;;;;;;;12.13;4.63;;;11.40;99.90;;;;;;20802884;28;20033;-77
2021/09/03 04:44:07;;;;;;;12.30;5.53;;;11.50;99.90;;;;;;20814070;28;20403;-78
2021/09/03 04:54:08;;;;;;;10.73;5.63;;;11.50;99.90;;;;;;20836924;28;20103;-78
2021/09/03 05:04:09;;;;;;;13.43;4.80;;;11.70;99.90;;;;;;20836774;28;20488;-77
2021/09/03 05:14:09;;;;;;;8.80;5.27;;;11.80;99.90;;;;;;20837199;28;20033;-77
2021/09/03 05:24:10;;;;;;;12.83;5.20;;;11.70;99.90;;;;;;20845497;28;20403;-78
2021/09/03 05:34:11;;;;;;;7.33;4.40;;;11.80;99.90;;;;;;20846232;28;20369;-77
2021/09/03 05:44:12;;;;;;;10.60;4.90;;;12.10;99.90;;;;;;20845909;28;20044;-77
2021/09/03 05:54:13;;;;;;;7.50;4.90;;;12.30;99.90;;;;;;20827654;28;20040;-78
2021/09/03 06:04:13;;;;;;;7.10;4.33;;;12.80;99.90;;;;;;20840870;28;20079;-76
2021/09/03 06:14:14;;;;;;;11.13;4.87;;;13.40;99.90;;;;;;20833436;28;20033;-75
2021/09/03 06:24:31;;;;;;;9.07;5.47;;;14.10;99.90;;;;;;20831328;28;20125;-74
2021/09/03 06:34:32;;;;;;;9.63;6.10;;;14.00;99.90;;;;;;20831568;28;20392;-75
2021/09/03 06:44:34;;;;;;;10.77;5.77;;;14.60;99.90;;;;;;20830928;28;20056;-75
2021/09/03 06:54:35;;;;;;;;;;;14.70;99.90;;;;;;20830736;28;20557;-76
2021/09/03 07:04:36;;;;;;;9.05;5.55;;;15.20;99.90;;;;;;20829363;28;19920;-76
2021/09/03 07:14:37;;;;;;;11.33;5.73;;;16.40;99.90;;;;;;20828206;28;20029;-76
2021/09/03 07:24:38;;;;;;;16.37;5.23;;;16.90;99.90;;;;;;20824792;28;20403;-75
2021/09/03 07:34:38;;;;;;;9.73;4.57;;;17.50;99.90;;;;;;20825002;28;20492;-76
2021/09/03 07:44:39;;;;;;;10.80;4.63;;;18.60;99.90;;;;;;20827749;28;20029;-76
2021/09/03 07:54:40;;;;;;;7.87;4.47;;;19.30;99.90;;;;;;20827877;28;20391;-77
2021/09/03 08:04:41;;;;;;;8.27;4.77;;;19.10;99.90;;;;;;20828148;28;20032;-76
2021/09/03 08:14:42;;;;;;;8.40;5.33;;;19.50;99.90;;;;;;20826498;28;20041;-76
2021/09/03 08:24:42;;;;;;;7.63;5.13;;;18.80;99.90;;;;;;20904565;22;20469;-73
2021/09/03 08:34:43;;;;;;;12.33;5.40;;;19.50;99.90;;;;;;20828514;28;20041;-72
2021/09/03 08:44:44;;;;;;;9.87;5.30;;;20.40;99.90;;;;;;20823035;28;20113;-72
2021/09/03 08:54:45;;;;;;;9.73;5.50;;;21.70;99.90;;;;;;20839918;28;20379;-73
2021/09/03 09:04:51;;;;;;;14.53;5.10;;;23.10;99.90;;;;;;20839772;28;20045;-73
2021/09/03 09:15:08;;;;;;;8.30;5.00;;;23.40;99.90;;;;;;20821992;28;20038;-73
2021/09/03 09:25:19;;;;;;;11.05;4.65;;;23.80;99.90;;;;;;20839944;28;20040;-73
2021/09/03 09:35:20;;;;;;;;;;;24.20;99.90;;;;;;20838145;28;20045;-73
2021/09/03 09:45:21;;;;;;;11.63;5.30;;;24.90;99.90;;;;;;20838669;28;20276;-74
2021/09/03 09:55:21;;;;;;;9.97;5.17;;;23.80;99.90;;;;;;20836358;28;20129;-74
2021/09/03 10:05:23;;;;;;;;;;;24.40;99.90;;;;;;20837586;28;20033;-73
2021/09/03 10:15:25;;;;;;;10.23;5.70;;;25.80;99.90;;;;;;20816160;28;19917;-75
2021/09/03 10:25:26;;;;;;;9.60;4.60;;;25.50;99.90;;;;;;20832792;28;20050;-71
2021/09/03 10:35:34;;;;;;;7.73;4.63;;;27.20;99.90;;;;;;20833180;28;20115;-73
2021/09/03 10:45:42;;;;;;;8.63;4.70;;;27.00;99.90;;;;;;20834527;28;20932;-73
2021/09/03 10:56:00;;;;;;;8.80;4.93;;;28.30;99.90;;;;;;20834777;28;20061;-74
2021/09/03 11:06:01;;;;;;;6.30;4.05;;;27.40;99.90;;;;;;20835486;28;20060;-75
2021/09/03 11:16:02;;;;;;;8.00;4.10;;;27.20;99.90;;;;;;20834660;28;20037;-75
2021/09/03 11:26:14;;;;;;;6.50;3.38;;;26.10;99.90;;;;;;20834390;28;20051;-75
2021/09/03 11:36:15;;;;;;;5.30;3.42;;;26.50;99.90;;;;;;20831999;28;20042;-75
2021/09/03 11:46:18;;;;;;;9.07;3.83;;;25.70;99.90;;;;;;20841459;28;20037;-76
2021/09/03 11:56:19;;;;;;;7.20;4.00;;;25.20;99.90;;;;;;20830061;28;20365;-76
2021/09/03 12:06:19;;;;;;;;;;;25.10;99.90;;;;;;20824499;28;20030;-75
2021/09/03 12:16:23;;;;;;;5.23;3.27;;;26.00;99.90;;;;;;20823468;28;19913;-75
2021/09/03 12:26:38;;;;;;;9.35;3.40;;;26.20;99.90;;;;;;20822006;28;20355;-74
2021/09/03 12:36:41;;;;;;;5.22;3.70;;;26.50;99.90;;;;;;20799766;28;20147;-73
2021/09/03 12:46:46;;;;;;;5.93;3.80;;;25.30;99.90;;;;;;20823037;28;20030;-74
2021/09/03 12:56:47;;;;;;;5.30;3.75;;;26.40;99.90;;;;;;20803188;28;20041;-75
2021/09/03 13:06:49;;;;;;;8.35;3.90;;;26.10;99.90;;;;;;20820346;28;20120;-75
2021/09/03 13:16:50;;;;;;;8.02;3.28;;;26.70;99.90;;;;;;20822143;28;20036;-74
2021/09/03 13:26:51;;;;;;;7.97;3.10;;;27.50;99.90;;;;;;20822801;28;20033;-74
2021/09/03 13:36:52;;;;;;;5.55;3.17;;;27.40;99.90;;;;;;20830275;28;20439;-74
2021/09/03 13:46:53;;;;;;;5.25;3.33;;;28.00;99.90;;;;;;20837035;28;20429;-74
2021/09/03 13:56:54;;;;;;;7.65;3.03;;;27.80;99.90;;;;;;20835541;28;20411;-74
2021/09/03 14:06:55;;;;;;;7.88;3.22;;;27.80;99.90;;;;;;20817608;28;20099;-77
2021/09/03 14:16:56;;;;;;;4.55;3.10;;;27.90;99.90;;;;;;20858415;22;20037;-77
2021/09/03 14:26:57;;;;;;;5.95;3.22;;;27.90;99.90;;;;;;20899839;28;20032;-77
2021/09/03 14:36:57;;;;;;;6.07;2.95;;;27.50;99.90;;;;;;20867331;28;20034;-78
2021/09/03 14:46:58;;;;;;;4.18;2.75;;;28.30;99.90;;;;;;20901370;28;20541;-79
2021/09/03 14:57:00;;;;;;;6.68;2.97;;;28.50;99.90;;;;;;20868093;28;20692;-79
2021/09/03 15:07:03;;;;;;;5.43;2.45;;;27.50;99.90;;;;;;20852526;28;20114;-78
2021/09/03 15:17:05;;;;;;;4.25;2.55;;;29.00;99.90;;;;;;20866209;28;20037;-78
2021/09/03 15:27:09;;;;;;;16.05;4.88;;;29.20;99.90;;;;;;20858777;28;20072;-77
2021/09/03 15:37:10;;;;;;;5.70;2.70;;;28.70;99.90;;;;;;20852884;28;20113;-77
2021/09/03 15:47:11;;;;;;;3.80;2.90;;;27.90;99.90;;;;;;20850289;28;20029;-78
2021/09/03 15:57:12;;;;;;;5.18;2.72;;;27.50;99.90;;;;;;20859565;28;20116;-77
2021/09/03 16:07:13;;;;;;;2.60;2.20;;;27.20;99.90;;;;;;20851738;28;20036;-77
2021/09/03 16:17:14;;;;;;;4.00;2.60;;;26.70;99.90;;;;;;20810075;28;20650;-78
2021/09/03 16:27:15;;;;;;;3.53;2.20;;;26.50;99.90;;;;;;20829180;28;20046;-77
2021/09/03 16:37:16;;;;;;;7.82;2.83;;;26.40;99.90;;;;;;20841723;28;20029;-77
2021/09/03 16:47:17;;;;;;;3.70;2.47;;;25.80;99.90;;;;;;20877335;28;20219;-78
2021/09/03 16:57:18;;;;;;;7.78;3.83;;;25.50;99.90;;;;;;20888803;28;20040;-77
2021/09/03 17:07:19;;;;;;;10.30;3.40;;;24.30;99.90;;;;;;20900536;28;20029;-77
2021/09/03 17:17:19;;;;;;;4.67;3.17;;;23.80;99.90;;;;;;20858301;28;20287;-77
2021/09/03 17:27:20;;;;;;;7.97;3.83;;;23.20;99.90;;;;;;20832061;28;20291;-78
2021/09/03 17:37:21;;;;;;;5.63;3.60;;;22.90;99.90;;;;;;20848058;28;20112;-77
2021/09/03 17:47:22;;;;;;;5.63;3.23;;;22.40;99.90;;;;;;20829396;28;20084;-78
2021/09/03 17:57:24;;;;;;;7.97;3.90;;;21.80;99.90;;;;;;20831697;28;20139;-79
2021/09/03 18:07:25;;;;;;;7.28;3.88;;;21.30;99.90;;;;;;20830614;28;20025;-78
2021/09/03 18:17:26;;;;;;;7.57;4.20;;;20.60;99.90;;;;;;20874820;28;20044;-81
2021/09/03 18:27:26;;;;;;;11.53;4.50;;;20.00;99.90;;;;;;20912149;28;20475;-77
2021/09/03 18:37:27;;;;;;;10.63;4.27;;;19.60;99.90;;;;;;20893046;28;20585;-78
2021/09/03 18:47:28;;;;;;;7.30;4.53;;;19.10;99.90;;;;;;20909311;28;20316;-80
2021/09/03 18:57:29;;;;;;;7.13;5.10;;;18.90;99.90;;;;;;20907952;28;20032;-79
2021/09/03 19:07:30;;;;;;;7.27;4.13;;;18.50;99.90;;;;;;20906231;28;20025;-81
2021/09/03 19:17:32;;;;;;;7.40;4.27;;;18.10;99.90;;;;;;20853912;28;20033;-77
2021/09/03 19:27:33;;;;;;;7.55;4.53;;;17.70;99.90;;;;;;20792942;28;20037;-78
2021/09/03 19:37:33;;;;;;;9.93;5.47;;;17.70;99.90;;;;;;20811995;28;20032;-78
2021/09/03 19:47:35;;;;;;;6.77;4.53;;;18.00;99.90;;;;;;20840712;28;20037;-79
2021/09/03 19:57:37;;;;;;;7.15;4.55;;;18.00;99.90;;;;;;20837215;28;20044;-78
2021/09/03 20:07:38;;;;;;;10.95;6.05;;;17.40;99.90;;;;;;20840873;28;20124;-82
2021/09/03 20:17:39;;;;;;;12.80;5.70;;;17.00;99.90;;;;;;20843703;28;20514;-79
2021/09/03 20:27:40;;;;;;;8.50;5.13;;;16.60;99.90;;;;;;20862707;28;20055;-79
2021/09/03 20:37:42;;;;;;;9.52;5.63;;;16.70;99.90;;;;;;20826614;28;20029;-78
2021/09/03 20:47:43;;;;;;;;;;;16.80;99.90;;;;;;20820553;28;20033;-77
2021/09/03 20:57:44;;;;;;;14.10;6.45;;;16.60;99.90;;;;;;20837792;28;19913;-78
2021/09/03 21:07:45;;;;;;;11.03;6.37;;;16.30;99.90;;;;;;20871916;28;20117;-78
2021/09/03 21:17:46;;;;;;;9.03;5.57;;;16.10;99.90;;;;;;20858857;28;20430;-79
2021/09/03 21:27:47;;;;;;;10.73;6.83;;;15.80;99.90;;;;;;20873851;28;20033;-78
2021/09/03 21:37:49;;;;;;;10.55;6.80;;;15.70;99.90;;;;;;20904594;28;20049;-80
2021/09/03 21:47:51;;;;;;;8.83;6.17;;;15.40;99.90;;;;;;20888109;28;20192;-80
2021/09/03 21:57:52;;;;;;;9.27;6.03;;;15.30;99.90;;;;;;20885222;28;20357;-81
2021/09/03 22:07:53;;;;;;;13.87;6.43;;;15.20;99.90;;;;;;20877534;28;20048;-79
2021/09/03 22:17:53;;;;;;;12.03;6.30;;;15.00;99.90;;;;;;20885865;28;20034;-78
2021/09/03 22:27:54;;;;;;;9.07;6.30;;;14.90;99.90;;;;;;20888746;28;20116;-79
2021/09/03 22:37:55;;;;;;;8.73;5.60;;;14.70;99.90;;;;;;20859801;28;20025;-79
2021/09/03 22:47:56;;;;;;;14.70;6.27;;;14.60;99.90;;;;;;20842406;28;20103;-78
2021/09/03 22:57:57;;;;;;;9.63;6.03;;;14.50;99.90;;;;;;20833212;28;20143;-78
2021/09/03 23:07:58;;;;;;;8.73;5.63;;;14.60;99.90;;;;;;20813950;28;20117;-78
2021/09/03 23:17:59;;;;;;;11.23;6.33;;;14.50;99.90;;;;;;20831150;28;20060;-77
2021/09/03 23:28:00;;;;;;;10.93;6.87;;;14.20;99.90;;;;;;20830967;28;20026;-78
2021/09/03 23:38:01;;;;;;;11.27;6.10;;;14.10;99.90;;;;;;20840266;28;20036;-78
2021/09/03 23:48:02;;;;;;;13.30;5.97;;;13.90;99.90;;;;;;20827912;28;20055;-79
2021/09/03 23:58:03;;;;;;;8.57;5.73;;;13.80;99.90;;;;;;20809132;28;20060;-78
